sensor_id;sensor_type;location;lat;lon;timestamp;temperature;humidity
16655;DHT22;8441;51.344;7.022;2024-03-22T00:01:57;9.80;99.90
16655;DHT22;8441;51.344;7.022;2024-03-22T00:04:26;9.80;99.90
16655;DHT22;8441;51.344;7.022;2024-03-22T00:06:52;9.80;99.90
16655;DHT22;8441;51.344;7.022;2024-03-22T00:09:19;9.90;99.90
16655;DHT22;8441;51.344;7.022;2024-03-22T00:11:46;9.90;99.90
16655;DHT22;8441;51.344;7.022;2024-03-22T00:14:13;10.00;99.90
16655;DHT22;8441;51.344;7.022;2024-03-22T00:16:39;10.00;99.90
16655;DHT22;8441;51.344;7.022;2024-03-22T00:19:07;10.00;99.90
16655;DHT22;8441;51.344;7.022;2024-03-22T00:21:34;10.10;99.90
16655;DHT22;8441;51.344;7.022;2024-03-22T00:24:02;10.10;99.90
16655;DHT22;8441;51.344;7.022;2024-03-22T00:26:28;10.10;99.90
16655;DHT22;8441;51.344;7.022;2024-03-22T00:28:56;10.20;99.90
16655;DHT22;8441;51.344;7.022;2024-03-22T00:31:24;10.20;99.90
16655;DHT22;8441;51.344;7.022;2024-03-22T00:33:51;10.20;99.90
16655;DHT22;8441;51.344;7.022;2024-03-22T00:36:17;10.20;99.90
16655;DHT22;8441;51.344;7.022;2024-03-22T00:38:46;10.20;99.90
16655;DHT22;8441;51.344;7.022;2024-03-22T00:41:12;10.30;99.90
16655;DHT22;8441;51.344;7.022;2024-03-22T00:43:40;10.30;99.90
16655;DHT22;8441;51.344;7.022;2024-03-22T00:46:06;10.30;99.90
16655;DHT22;8441;51.344;7.022;2024-03-22T00:48:33;10.30;99.90
16655;DHT22;8441;51.344;7.022;2024-03-22T00:51:01;10.30;99.90
16655;DHT22;8441;51.344;7.022;2024-03-22T00:53:28;10.30;99.90
16655;DHT22;8441;51.344;7.022;2024-03-22T00:55:56;10.30;99.90
16655;DHT22;8441;51.344;7.022;2024-03-22T00:58:26;10.30;99.90
16655;DHT22;8441;51.344;7.022;2024-03-22T01:00:52;10.30;99.90
16655;DHT22;8441;51.344;7.022;2024-03-22T01:03:20;10.40;99.90
16655;DHT22;8441;51.344;7.022;2024-03-22T01:05:46;10.40;99.90
16655;DHT22;8441;51.344;7.022;2024-03-22T01:08:14;10.40;99.90
16655;DHT22;8441;51.344;7.022;2024-03-22T01:10:40;10.40;99.90
16655;DHT22;8441;51.344;7.022;2024-03-22T01:13:09;10.40;99.90
16655;DHT22;8441;51.344;7.022;2024-03-22T01:15:35;10.40;99.90
16655;DHT22;8441;51.344;7.022;2024-03-22T01:18:03;10.40;99.90
16655;DHT22;8441;51.344;7.022;2024-03-22T01:20:29;10.40;99.90
16655;DHT22;8441;51.344;7.022;2024-03-22T01:22:58;10.40;99.90
16655;DHT22;8441;51.344;7.022;2024-03-22T01:25:24;10.40;99.90
16655;DHT22;8441;51.344;7.022;2024-03-22T01:27:52;10.40;99.90
16655;DHT22;8441;51.344;7.022;2024-03-22T01:30:20;10.50;99.90
16655;DHT22;8441;51.344;7.022;2024-03-22T01:32:47;10.50;99.90
16655;DHT22;8441;51.344;7.022;2024-03-22T01:35:13;10.40;99.90
16655;DHT22;8441;51.344;7.022;2024-03-22T01:37:41;10.50;99.90
16655;DHT22;8441;51.344;7.022;2024-03-22T01:40:08;10.50;99.90
16655;DHT22;8441;51.344;7.022;2024-03-22T01:42:36;10.50;99.90
16655;DHT22;8441;51.344;7.022;2024-03-22T01:45:02;10.50;99.90
16655;DHT22;8441;51.344;7.022;2024-03-22T01:47:32;10.50;99.90
16655;DHT22;8441;51.344;7.022;2024-03-22T01:49:58;10.50;99.90
16655;DHT22;8441;51.344;7.022;2024-03-22T01:52:25;10.50;99.90
16655;DHT22;8441;51.344;7.022;2024-03-22T01:54:52;10.50;99.90
16655;DHT22;8441;51.344;7.022;2024-03-22T01:57:19;10.40;99.90
16655;DHT22;8441;51.344;7.022;2024-03-22T01:59:46;10.40;99.90
16655;DHT22;8441;51.344;7.022;2024-03-22T02:02:16;10.40;99.90
16655;DHT22;8441;51.344;7.022;2024-03-22T02:04:44;10.40;99.90
16655;DHT22;8441;51.344;7.022;2024-03-22T02:07:11;10.40;99.90
16655;DHT22;8441;51.344;7.022;2024-03-22T02:09:38;10.40;99.90
16655;DHT22;8441;51.344;7.022;2024-03-22T02:12:05;10.50;99.90
16655;DHT22;8441;51.344;7.022;2024-03-22T02:14:31;10.50;99.90
16655;DHT22;8441;51.344;7.022;2024-03-22T02:16:59;10.50;99.90
16655;DHT22;8441;51.344;7.022;2024-03-22T02:19:25;10.50;99.90
16655;DHT22;8441;51.344;7.022;2024-03-22T02:21:54;10.50;99.90
16655;DHT22;8441;51.344;7.022;2024-03-22T02:24:21;10.50;99.90
16655;DHT22;8441;51.344;7.022;2024-03-22T02:26:49;10.50;99.90
16655;DHT22;8441;51.344;7.022;2024-03-22T02:29:15;10.50;99.90
16655;DHT22;8441;51.344;7.022;2024-03-22T02:31:42;10.50;99.90
16655;DHT22;8441;51.344;7.022;2024-03-22T02:34:08;10.50;99.90
16655;DHT22;8441;51.344;7.022;2024-03-22T02:36:35;10.50;99.90
16655;DHT22;8441;51.344;7.022;2024-03-22T02:39:02;10.50;99.90
16655;DHT22;8441;51.344;7.022;2024-03-22T02:41:31;10.50;99.90
16655;DHT22;8441;51.344;7.022;2024-03-22T02:43:57;10.50;99.90
16655;DHT22;8441;51.344;7.022;2024-03-22T02:46:25;10.50;99.90
16655;DHT22;8441;51.344;7.022;2024-03-22T02:48:51;10.50;99.90
16655;DHT22;8441;51.344;7.022;2024-03-22T02:51:18;10.40;99.90
16655;DHT22;8441;51.344;7.022;2024-03-22T02:53:44;10.40;99.90
16655;DHT22;8441;51.344;7.022;2024-03-22T02:56:12;10.40;99.90
16655;DHT22;8441;51.344;7.022;2024-03-22T02:58:40;10.40;99.90
16655;DHT22;8441;51.344;7.022;2024-03-22T03:01:07;10.40;99.90
16655;DHT22;8441;51.344;7.022;2024-03-22T03:03:33;10.40;99.90
16655;DHT22;8441;51.344;7.022;2024-03-22T03:06:00;10.40;99.90
16655;DHT22;8441;51.344;7.022;2024-03-22T03:08:27;10.40;99.90
16655;DHT22;8441;51.344;7.022;2024-03-22T03:10:54;10.40;99.90
16655;DHT22;8441;51.344;7.022;2024-03-22T03:13:20;10.50;99.90
16655;DHT22;8441;51.344;7.022;2024-03-22T03:15:49;10.50;99.90
16655;DHT22;8441;51.344;7.022;2024-03-22T03:18:15;10.50;99.90
16655;DHT22;8441;51.344;7.022;2024-03-22T03:20:43;10.40;99.90
16655;DHT22;8441;51.344;7.022;2024-03-22T03:23:09;10.40;99.90
16655;DHT22;8441;51.344;7.022;2024-03-22T03:25:36;10.30;99.90
16655;DHT22;8441;51.344;7.022;2024-03-22T03:28:03;10.30;99.90
16655;DHT22;8441;51.344;7.022;2024-03-22T03:30:32;10.20;99.90
16655;DHT22;8441;51.344;7.022;2024-03-22T03:32:59;10.20;99.90
16655;DHT22;8441;51.344;7.022;2024-03-22T03:35:27;10.20;99.90
16655;DHT22;8441;51.344;7.022;2024-03-22T03:37:54;10.20;99.90
16655;DHT22;8441;51.344;7.022;2024-03-22T03:40:22;10.20;99.90
16655;DHT22;8441;51.344;7.022;2024-03-22T03:42:50;10.20;99.90
16655;DHT22;8441;51.344;7.022;2024-03-22T03:45:17;10.20;99.90
16655;DHT22;8441;51.344;7.022;2024-03-22T03:47:44;10.20;99.90
16655;DHT22;8441;51.344;7.022;2024-03-22T03:50:12;10.10;99.90
16655;DHT22;8441;51.344;7.022;2024-03-22T03:52:39;10.10;99.90
16655;DHT22;8441;51.344;7.022;2024-03-22T03:55:06;10.00;99.90
16655;DHT22;8441;51.344;7.022;2024-03-22T03:57:33;10.00;99.90
16655;DHT22;8441;51.344;7.022;2024-03-22T04:00:00;9.90;99.90
16655;DHT22;8441;51.344;7.022;2024-03-22T04:02:26;9.90;99.90
16655;DHT22;8441;51.344;7.022;2024-03-22T04:04:53;9.90;99.90
16655;DHT22;8441;51.344;7.022;2024-03-22T04:07:21;9.90;99.90
16655;DHT22;8441;51.344;7.022;2024-03-22T04:09:48;9.80;99.90
16655;DHT22;8441;51.344;7.022;2024-03-22T04:12:15;9.80;99.90
16655;DHT22;8441;51.344;7.022;2024-03-22T04:14:42;9.80;99.90
16655;DHT22;8441;51.344;7.022;2024-03-22T04:17:08;9.80;99.90
16655;DHT22;8441;51.344;7.022;2024-03-22T04:19:35;9.80;99.90
16655;DHT22;8441;51.344;7.022;2024-03-22T04:22:02;9.80;99.90
16655;DHT22;8441;51.344;7.022;2024-03-22T04:24:31;9.80;99.90
16655;DHT22;8441;51.344;7.022;2024-03-22T04:26:57;9.80;99.90
16655;DHT22;8441;51.344;7.022;2024-03-22T04:29:25;9.80;99.90
16655;DHT22;8441;51.344;7.022;2024-03-22T04:31:51;9.80;99.90
16655;DHT22;8441;51.344;7.022;2024-03-22T04:34:18;9.80;99.90
16655;DHT22;8441;51.344;7.022;2024-03-22T04:36:44;9.80;99.90
16655;DHT22;8441;51.344;7.022;2024-03-22T04:39:11;9.80;99.90
16655;DHT22;8441;51.344;7.022;2024-03-22T04:41:41;9.80;99.90
16655;DHT22;8441;51.344;7.022;2024-03-22T04:44:08;9.90;99.90
16655;DHT22;8441;51.344;7.022;2024-03-22T04:46:35;9.90;99.90
16655;DHT22;8441;51.344;7.022;2024-03-22T04:49:01;9.90;99.90
16655;DHT22;8441;51.344;7.022;2024-03-22T04:51:29;9.90;99.90
16655;DHT22;8441;51.344;7.022;2024-03-22T04:53:55;9.90;99.90
16655;DHT22;8441;51.344;7.022;2024-03-22T04:56:22;9.90;99.90
16655;DHT22;8441;51.344;7.022;2024-03-22T04:58:50;9.90;99.90
16655;DHT22;8441;51.344;7.022;2024-03-22T05:01:17;10.00;99.90
16655;DHT22;8441;51.344;7.022;2024-03-22T05:03:44;10.00;99.90
16655;DHT22;8441;51.344;7.022;2024-03-22T05:06:10;10.00;99.90
16655;DHT22;8441;51.344;7.022;2024-03-22T05:08:38;10.00;99.90
16655;DHT22;8441;51.344;7.022;2024-03-22T05:11:04;10.00;99.90
16655;DHT22;8441;51.344;7.022;2024-03-22T05:13:31;10.10;99.90
16655;DHT22;8441;51.344;7.022;2024-03-22T05:15:59;10.10;99.90
16655;DHT22;8441;51.344;7.022;2024-03-22T05:18:26;10.00;99.90
16655;DHT22;8441;51.344;7.022;2024-03-22T05:20:53;10.10;99.90
16655;DHT22;8441;51.344;7.022;2024-03-22T05:23:20;10.10;99.90
16655;DHT22;8441;51.344;7.022;2024-03-22T05:25:46;10.10;99.90
16655;DHT22;8441;51.344;7.022;2024-03-22T05:28:13;10.10;99.90
16655;DHT22;8441;51.344;7.022;2024-03-22T05:30:40;10.00;99.90
16655;DHT22;8441;51.344;7.022;2024-03-22T05:33:08;10.10;99.90
16655;DHT22;8441;51.344;7.022;2024-03-22T05:35:34;10.10;99.90
16655;DHT22;8441;51.344;7.022;2024-03-22T05:38:02;10.10;99.90
16655;DHT22;8441;51.344;7.022;2024-03-22T05:40:28;10.20;99.90
16655;DHT22;8441;51.344;7.022;2024-03-22T05:42:55;10.20;99.90
16655;DHT22;8441;51.344;7.022;2024-03-22T05:45:22;10.20;99.90
16655;DHT22;8441;51.344;7.022;2024-03-22T05:47:49;10.10;99.90
16655;DHT22;8441;51.344;7.022;2024-03-22T05:50:17;10.10;99.90
16655;DHT22;8441;51.344;7.022;2024-03-22T05:52:46;10.20;99.90
16655;DHT22;8441;51.344;7.022;2024-03-22T05:55:12;10.10;99.90
16655;DHT22;8441;51.344;7.022;2024-03-22T05:57:40;10.20;99.90
16655;DHT22;8441;51.344;7.022;2024-03-22T06:00:07;10.20;99.90
16655;DHT22;8441;51.344;7.022;2024-03-22T06:02:34;10.20;99.90
16655;DHT22;8441;51.344;7.022;2024-03-22T06:05:00;10.20;99.90
16655;DHT22;8441;51.344;7.022;2024-03-22T06:07:29;10.30;99.90
16655;DHT22;8441;51.344;7.022;2024-03-22T06:09:55;10.30;99.90
16655;DHT22;8441;51.344;7.022;2024-03-22T06:12:23;10.30;99.90
16655;DHT22;8441;51.344;7.022;2024-03-22T06:14:49;10.40;99.90
16655;DHT22;8441;51.344;7.022;2024-03-22T06:17:16;10.40;99.90
16655;DHT22;8441;51.344;7.022;2024-03-22T06:19:43;10.50;99.90
16655;DHT22;8441;51.344;7.022;2024-03-22T06:22:10;10.50;99.90
16655;DHT22;8441;51.344;7.022;2024-03-22T06:24:37;10.60;99.90
16655;DHT22;8441;51.344;7.022;2024-03-22T06:27:06;10.70;99.90
16655;DHT22;8441;51.344;7.022;2024-03-22T06:29:33;10.80;99.90
16655;DHT22;8441;51.344;7.022;2024-03-22T06:32:00;10.90;99.90
16655;DHT22;8441;51.344;7.022;2024-03-22T06:34:26;11.00;99.90
16655;DHT22;8441;51.344;7.022;2024-03-22T06:36:53;11.00;99.90
16655;DHT22;8441;51.344;7.022;2024-03-22T06:39:20;11.10;99.90
16655;DHT22;8441;51.344;7.022;2024-03-22T06:41:48;11.10;99.90
16655;DHT22;8441;51.344;7.022;2024-03-22T06:44:14;11.10;99.90
16655;DHT22;8441;51.344;7.022;2024-03-22T06:46:42;11.20;99.90
16655;DHT22;8441;51.344;7.022;2024-03-22T06:49:08;11.30;99.90
16655;DHT22;8441;51.344;7.022;2024-03-22T06:51:35;11.30;99.90
16655;DHT22;8441;51.344;7.022;2024-03-22T06:54:02;11.30;99.90
16655;DHT22;8441;51.344;7.022;2024-03-22T06:56:29;11.40;99.90
16655;DHT22;8441;51.344;7.022;2024-03-22T06:58:57;11.40;99.90
16655;DHT22;8441;51.344;7.022;2024-03-22T07:01:24;11.40;99.90
16655;DHT22;8441;51.344;7.022;2024-03-22T07:03:50;11.40;99.90
16655;DHT22;8441;51.344;7.022;2024-03-22T07:06:18;11.40;99.90
16655;DHT22;8441;51.344;7.022;2024-03-22T07:08:44;11.40;99.90
16655;DHT22;8441;51.344;7.022;2024-03-22T07:11:12;11.40;99.90
16655;DHT22;8441;51.344;7.022;2024-03-22T07:13:38;11.40;99.90
16655;DHT22;8441;51.344;7.022;2024-03-22T07:16:07;11.50;99.90
16655;DHT22;8441;51.344;7.022;2024-03-22T07:18:33;11.60;99.90
16655;DHT22;8441;51.344;7.022;2024-03-22T07:21:00;11.70;99.90
16655;DHT22;8441;51.344;7.022;2024-03-22T07:23:27;11.80;99.90
16655;DHT22;8441;51.344;7.022;2024-03-22T07:25:55;12.00;99.90
16655;DHT22;8441;51.344;7.022;2024-03-22T07:28:21;12.10;99.90
16655;DHT22;8441;51.344;7.022;2024-03-22T07:30:48;12.20;99.90
16655;DHT22;8441;51.344;7.022;2024-03-22T07:33:16;12.30;99.90
16655;DHT22;8441;51.344;7.022;2024-03-22T07:35:43;12.40;99.90
16655;DHT22;8441;51.344;7.022;2024-03-22T07:38:10;12.50;99.90
16655;DHT22;8441;51.344;7.022;2024-03-22T07:40:37;12.50;99.90
16655;DHT22;8441;51.344;7.022;2024-03-22T07:43:03;12.60;99.90
16655;DHT22;8441;51.344;7.022;2024-03-22T07:45:33;12.80;99.90
16655;DHT22;8441;51.344;7.022;2024-03-22T07:48:00;12.90;99.90
16655;DHT22;8441;51.344;7.022;2024-03-22T07:50:28;13.00;99.90
16655;DHT22;8441;51.344;7.022;2024-03-22T07:52:55;13.10;99.90
16655;DHT22;8441;51.344;7.022;2024-03-22T07:55:22;13.10;99.90
16655;DHT22;8441;51.344;7.022;2024-03-22T07:57:49;13.00;99.90
16655;DHT22;8441;51.344;7.022;2024-03-22T08:00:16;13.10;99.90
16655;DHT22;8441;51.344;7.022;2024-03-22T08:02:43;13.20;99.90
16655;DHT22;8441;51.344;7.022;2024-03-22T08:05:10;13.30;99.90
16655;DHT22;8441;51.344;7.022;2024-03-22T08:07:38;13.40;99.90
16655;DHT22;8441;51.344;7.022;2024-03-22T08:10:05;13.40;99.90
16655;DHT22;8441;51.344;7.022;2024-03-22T08:12:32;13.40;99.90
16655;DHT22;8441;51.344;7.022;2024-03-22T08:14:59;13.50;99.90
16655;DHT22;8441;51.344;7.022;2024-03-22T08:17:25;13.50;99.90
16655;DHT22;8441;51.344;7.022;2024-03-22T08:19:53;13.50;99.90
16655;DHT22;8441;51.344;7.022;2024-03-22T08:22:19;13.60;99.90
16655;DHT22;8441;51.344;7.022;2024-03-22T08:24:48;13.70;99.90
16655;DHT22;8441;51.344;7.022;2024-03-22T08:27:14;13.70;99.90
16655;DHT22;8441;51.344;7.022;2024-03-22T08:29:42;13.70;99.90
16655;DHT22;8441;51.344;7.022;2024-03-22T08:32:08;13.80;99.90
16655;DHT22;8441;51.344;7.022;2024-03-22T08:34:35;13.80;99.90
16655;DHT22;8441;51.344;7.022;2024-03-22T08:37:01;13.90;99.90
16655;DHT22;8441;51.344;7.022;2024-03-22T08:39:29;13.90;99.90
16655;DHT22;8441;51.344;7.022;2024-03-22T08:41:57;13.90;99.90
16655;DHT22;8441;51.344;7.022;2024-03-22T08:44:24;13.90;99.90
16655;DHT22;8441;51.344;7.022;2024-03-22T08:46:50;14.00;99.90
16655;DHT22;8441;51.344;7.022;2024-03-22T08:49:18;14.10;99.90
16655;DHT22;8441;51.344;7.022;2024-03-22T08:51:45;14.20;99.90
16655;DHT22;8441;51.344;7.022;2024-03-22T08:54:14;14.30;99.90
16655;DHT22;8441;51.344;7.022;2024-03-22T08:56:40;14.20;99.90
16655;DHT22;8441;51.344;7.022;2024-03-22T08:59:09;14.40;99.90
16655;DHT22;8441;51.344;7.022;2024-03-22T09:01:36;14.50;99.90
16655;DHT22;8441;51.344;7.022;2024-03-22T09:04:03;14.60;99.90
16655;DHT22;8441;51.344;7.022;2024-03-22T09:06:30;14.60;99.90
16655;DHT22;8441;51.344;7.022;2024-03-22T09:08:58;14.50;99.90
16655;DHT22;8441;51.344;7.022;2024-03-22T09:11:24;14.70;99.90
16655;DHT22;8441;51.344;7.022;2024-03-22T09:13:52;14.70;99.90
16655;DHT22;8441;51.344;7.022;2024-03-22T09:16:20;14.80;99.90
16655;DHT22;8441;51.344;7.022;2024-03-22T09:18:47;14.80;99.90
16655;DHT22;8441;51.344;7.022;2024-03-22T09:21:13;14.80;99.90
16655;DHT22;8441;51.344;7.022;2024-03-22T09:23:41;14.60;99.90
16655;DHT22;8441;51.344;7.022;2024-03-22T09:26:07;14.50;99.90
16655;DHT22;8441;51.344;7.022;2024-03-22T09:28:34;14.50;99.90
16655;DHT22;8441;51.344;7.022;2024-03-22T09:31:04;14.60;99.90
16655;DHT22;8441;51.344;7.022;2024-03-22T09:33:34;14.70;99.90
16655;DHT22;8441;51.344;7.022;2024-03-22T09:36:01;15.00;99.90
16655;DHT22;8441;51.344;7.022;2024-03-22T09:38:29;15.10;99.90
16655;DHT22;8441;51.344;7.022;2024-03-22T09:40:55;15.30;99.90
16655;DHT22;8441;51.344;7.022;2024-03-22T09:43:23;15.30;99.90
16655;DHT22;8441;51.344;7.022;2024-03-22T09:45:49;15.40;99.90
16655;DHT22;8441;51.344;7.022;2024-03-22T09:48:18;15.30;99.90
16655;DHT22;8441;51.344;7.022;2024-03-22T09:50:46;15.10;99.90
16655;DHT22;8441;51.344;7.022;2024-03-22T09:53:18;15.20;99.90
16655;DHT22;8441;51.344;7.022;2024-03-22T09:55:45;15.10;99.90
16655;DHT22;8441;51.344;7.022;2024-03-22T09:58:12;15.20;99.90
16655;DHT22;8441;51.344;7.022;2024-03-22T10:00:38;15.30;99.90
16655;DHT22;8441;51.344;7.022;2024-03-22T10:03:06;15.50;99.90
16655;DHT22;8441;51.344;7.022;2024-03-22T10:05:33;15.60;99.90
16655;DHT22;8441;51.344;7.022;2024-03-22T10:08:03;15.60;99.90
16655;DHT22;8441;51.344;7.022;2024-03-22T10:10:29;15.70;99.90
16655;DHT22;8441;51.344;7.022;2024-03-22T10:12:56;15.80;99.90
16655;DHT22;8441;51.344;7.022;2024-03-22T10:15:23;15.80;99.90
16655;DHT22;8441;51.344;7.022;2024-03-22T10:17:52;16.00;99.90
16655;DHT22;8441;51.344;7.022;2024-03-22T10:20:22;16.10;99.90
16655;DHT22;8441;51.344;7.022;2024-03-22T10:22:48;16.00;99.90
16655;DHT22;8441;51.344;7.022;2024-03-22T10:25:17;16.10;99.90
16655;DHT22;8441;51.344;7.022;2024-03-22T10:27:44;16.00;99.90
16655;DHT22;8441;51.344;7.022;2024-03-22T10:30:12;16.20;99.90
16655;DHT22;8441;51.344;7.022;2024-03-22T10:32:42;16.10;99.90
16655;DHT22;8441;51.344;7.022;2024-03-22T10:35:12;16.00;99.90
16655;DHT22;8441;51.344;7.022;2024-03-22T10:37:39;16.10;99.90
16655;DHT22;8441;51.344;7.022;2024-03-22T10:40:08;16.10;99.90
16655;DHT22;8441;51.344;7.022;2024-03-22T10:42:37;16.10;99.90
16655;DHT22;8441;51.344;7.022;2024-03-22T10:45:06;16.00;99.90
16655;DHT22;8441;51.344;7.022;2024-03-22T10:47:34;16.00;99.90
16655;DHT22;8441;51.344;7.022;2024-03-22T10:50:05;15.90;99.90
16655;DHT22;8441;51.344;7.022;2024-03-22T10:52:34;15.80;99.90
16655;DHT22;8441;51.344;7.022;2024-03-22T10:55:04;15.80;99.90
16655;DHT22;8441;51.344;7.022;2024-03-22T10:57:32;16.00;99.90
16655;DHT22;8441;51.344;7.022;2024-03-22T11:00:08;16.10;99.90
16655;DHT22;8441;51.344;7.022;2024-03-22T11:02:36;16.00;99.90
16655;DHT22;8441;51.344;7.022;2024-03-22T11:05:03;16.00;99.90
16655;DHT22;8441;51.344;7.022;2024-03-22T11:07:30;16.10;99.90
16655;DHT22;8441;51.344;7.022;2024-03-22T11:09:58;16.00;99.90
16655;DHT22;8441;51.344;7.022;2024-03-22T11:12:26;16.20;99.90
16655;DHT22;8441;51.344;7.022;2024-03-22T11:14:59;16.20;99.90
16655;DHT22;8441;51.344;7.022;2024-03-22T11:17:27;16.20;99.90
16655;DHT22;8441;51.344;7.022;2024-03-22T11:19:55;16.40;99.90
16655;DHT22;8441;51.344;7.022;2024-03-22T11:22:21;16.30;99.90
16655;DHT22;8441;51.344;7.022;2024-03-22T11:24:48;16.20;99.90
16655;DHT22;8441;51.344;7.022;2024-03-22T11:27:15;16.30;99.90
16655;DHT22;8441;51.344;7.022;2024-03-22T11:29:42;16.30;99.90
16655;DHT22;8441;51.344;7.022;2024-03-22T11:32:09;16.30;99.90
16655;DHT22;8441;51.344;7.022;2024-03-22T11:34:40;16.40;99.90
16655;DHT22;8441;51.344;7.022;2024-03-22T11:37:07;16.60;99.90
16655;DHT22;8441;51.344;7.022;2024-03-22T11:39:36;16.70;99.90
16655;DHT22;8441;51.344;7.022;2024-03-22T11:42:03;16.80;99.90
16655;DHT22;8441;51.344;7.022;2024-03-22T11:44:31;16.70;99.90
16655;DHT22;8441;51.344;7.022;2024-03-22T11:46:59;16.70;99.90
16655;DHT22;8441;51.344;7.022;2024-03-22T11:49:25;16.90;99.90
16655;DHT22;8441;51.344;7.022;2024-03-22T11:51:55;17.00;99.90
16655;DHT22;8441;51.344;7.022;2024-03-22T11:54:22;16.70;99.90
16655;DHT22;8441;51.344;7.022;2024-03-22T11:56:50;16.50;99.90
16655;DHT22;8441;51.344;7.022;2024-03-22T11:59:19;16.50;99.90
16655;DHT22;8441;51.344;7.022;2024-03-22T12:01:47;16.40;99.90
16655;DHT22;8441;51.344;7.022;2024-03-22T12:04:13;16.20;99.90
16655;DHT22;8441;51.344;7.022;2024-03-22T12:06:42;16.00;99.90
16655;DHT22;8441;51.344;7.022;2024-03-22T12:09:09;16.10;99.90
16655;DHT22;8441;51.344;7.022;2024-03-22T12:11:38;16.10;99.90
16655;DHT22;8441;51.344;7.022;2024-03-22T12:14:04;16.00;99.90
16655;DHT22;8441;51.344;7.022;2024-03-22T12:16:31;16.00;99.90
16655;DHT22;8441;51.344;7.022;2024-03-22T12:18:58;15.90;99.90
16655;DHT22;8441;51.344;7.022;2024-03-22T12:21:25;15.80;99.90
16655;DHT22;8441;51.344;7.022;2024-03-22T12:23:51;15.70;99.90
16655;DHT22;8441;51.344;7.022;2024-03-22T12:26:20;15.60;99.90
16655;DHT22;8441;51.344;7.022;2024-03-22T12:28:46;15.30;99.90
16655;DHT22;8441;51.344;7.022;2024-03-22T12:31:16;15.20;99.90
16655;DHT22;8441;51.344;7.022;2024-03-22T12:33:43;15.00;99.90
16655;DHT22;8441;51.344;7.022;2024-03-22T12:36:11;14.80;99.90
16655;DHT22;8441;51.344;7.022;2024-03-22T12:38:37;14.80;99.90
16655;DHT22;8441;51.344;7.022;2024-03-22T12:41:04;14.90;99.90
16655;DHT22;8441;51.344;7.022;2024-03-22T12:43:33;14.80;99.90
16655;DHT22;8441;51.344;7.022;2024-03-22T12:46:00;14.70;99.90
16655;DHT22;8441;51.344;7.022;2024-03-22T12:48:26;14.70;99.90
16655;DHT22;8441;51.344;7.022;2024-03-22T12:50:54;14.60;99.90
16655;DHT22;8441;51.344;7.022;2024-03-22T12:53:20;14.40;99.90
16655;DHT22;8441;51.344;7.022;2024-03-22T12:55:47;14.30;99.90
16655;DHT22;8441;51.344;7.022;2024-03-22T12:58:14;14.30;99.90
16655;DHT22;8441;51.344;7.022;2024-03-22T13:00:42;14.30;99.90
16655;DHT22;8441;51.344;7.022;2024-03-22T13:03:09;14.20;99.90
16655;DHT22;8441;51.344;7.022;2024-03-22T13:05:37;14.20;99.90
16655;DHT22;8441;51.344;7.022;2024-03-22T13:08:04;14.30;99.90
16655;DHT22;8441;51.344;7.022;2024-03-22T13:10:31;14.30;99.90
16655;DHT22;8441;51.344;7.022;2024-03-22T13:12:57;14.20;99.90
16655;DHT22;8441;51.344;7.022;2024-03-22T13:15:24;14.10;99.90
16655;DHT22;8441;51.344;7.022;2024-03-22T13:17:53;13.90;99.90
16655;DHT22;8441;51.344;7.022;2024-03-22T13:20:22;13.90;99.90
16655;DHT22;8441;51.344;7.022;2024-03-22T13:22:48;13.80;99.90
16655;DHT22;8441;51.344;7.022;2024-03-22T13:25:15;13.80;99.90
16655;DHT22;8441;51.344;7.022;2024-03-22T13:27:41;13.70;99.90
16655;DHT22;8441;51.344;7.022;2024-03-22T13:30:10;13.50;99.90
16655;DHT22;8441;51.344;7.022;2024-03-22T13:32:36;13.50;99.90
16655;DHT22;8441;51.344;7.022;2024-03-22T13:35:06;13.40;99.90
16655;DHT22;8441;51.344;7.022;2024-03-22T13:37:32;13.30;99.90
16655;DHT22;8441;51.344;7.022;2024-03-22T13:40:00;13.20;99.90
16655;DHT22;8441;51.344;7.022;2024-03-22T13:42:26;13.30;99.90
16655;DHT22;8441;51.344;7.022;2024-03-22T13:44:53;13.30;99.90
16655;DHT22;8441;51.344;7.022;2024-03-22T13:47:20;13.20;99.90
16655;DHT22;8441;51.344;7.022;2024-03-22T13:49:47;13.10;99.90
16655;DHT22;8441;51.344;7.022;2024-03-22T13:52:15;13.00;99.90
16655;DHT22;8441;51.344;7.022;2024-03-22T13:54:44;12.90;99.90
16655;DHT22;8441;51.344;7.022;2024-03-22T13:57:10;12.90;99.90
16655;DHT22;8441;51.344;7.022;2024-03-22T13:59:38;12.90;99.90
16655;DHT22;8441;51.344;7.022;2024-03-22T14:02:05;13.00;99.90
16655;DHT22;8441;51.344;7.022;2024-03-22T14:04:34;13.00;99.90
16655;DHT22;8441;51.344;7.022;2024-03-22T14:07:00;13.00;99.90
16655;DHT22;8441;51.344;7.022;2024-03-22T14:09:31;13.10;99.90
16655;DHT22;8441;51.344;7.022;2024-03-22T14:11:58;13.00;99.90
16655;DHT22;8441;51.344;7.022;2024-03-22T14:14:25;13.00;99.90
16655;DHT22;8441;51.344;7.022;2024-03-22T14:16:52;13.00;99.90
16655;DHT22;8441;51.344;7.022;2024-03-22T14:19:19;12.90;99.90
16655;DHT22;8441;51.344;7.022;2024-03-22T14:21:45;12.90;99.90
16655;DHT22;8441;51.344;7.022;2024-03-22T14:24:13;12.90;99.90
16655;DHT22;8441;51.344;7.022;2024-03-22T14:26:41;12.70;99.90
16655;DHT22;8441;51.344;7.022;2024-03-22T14:29:09;12.70;99.90
16655;DHT22;8441;51.344;7.022;2024-03-22T14:31:35;12.80;99.90
16655;DHT22;8441;51.344;7.022;2024-03-22T14:34:02;12.70;99.90
16655;DHT22;8441;51.344;7.022;2024-03-22T14:36:29;12.60;99.90
16655;DHT22;8441;51.344;7.022;2024-03-22T14:38:56;12.50;99.90
16655;DHT22;8441;51.344;7.022;2024-03-22T14:41:22;12.50;99.90
16655;DHT22;8441;51.344;7.022;2024-03-22T14:43:51;12.50;99.90
16655;DHT22;8441;51.344;7.022;2024-03-22T14:46:17;12.40;99.90
16655;DHT22;8441;51.344;7.022;2024-03-22T14:48:49;12.30;99.90
16655;DHT22;8441;51.344;7.022;2024-03-22T14:51:15;12.00;99.90
16655;DHT22;8441;51.344;7.022;2024-03-22T14:53:42;11.80;99.90
16655;DHT22;8441;51.344;7.022;2024-03-22T14:56:08;11.50;99.90
16655;DHT22;8441;51.344;7.022;2024-03-22T14:58:35;11.40;99.90
16655;DHT22;8441;51.344;7.022;2024-03-22T15:01:04;11.50;99.90
16655;DHT22;8441;51.344;7.022;2024-03-22T15:03:32;11.50;99.90
16655;DHT22;8441;51.344;7.022;2024-03-22T15:05:59;11.50;99.90
16655;DHT22;8441;51.344;7.022;2024-03-22T15:08:27;11.50;99.90
16655;DHT22;8441;51.344;7.022;2024-03-22T15:10:54;11.40;99.90
16655;DHT22;8441;51.344;7.022;2024-03-22T15:13:22;11.30;99.90
16655;DHT22;8441;51.344;7.022;2024-03-22T15:15:55;11.30;99.90
16655;DHT22;8441;51.344;7.022;2024-03-22T15:18:25;11.20;99.90
16655;DHT22;8441;51.344;7.022;2024-03-22T15:20:52;11.20;99.90
16655;DHT22;8441;51.344;7.022;2024-03-22T15:23:20;11.10;99.90
16655;DHT22;8441;51.344;7.022;2024-03-22T15:25:47;11.10;99.90
16655;DHT22;8441;51.344;7.022;2024-03-22T15:28:14;11.00;99.90
16655;DHT22;8441;51.344;7.022;2024-03-22T15:30:41;11.00;99.90
16655;DHT22;8441;51.344;7.022;2024-03-22T15:33:10;10.90;99.90
16655;DHT22;8441;51.344;7.022;2024-03-22T15:35:37;11.00;99.90
16655;DHT22;8441;51.344;7.022;2024-03-22T15:38:06;11.10;99.90
16655;DHT22;8441;51.344;7.022;2024-03-22T15:40:32;11.00;99.90
16655;DHT22;8441;51.344;7.022;2024-03-22T15:43:00;11.00;99.90
16655;DHT22;8441;51.344;7.022;2024-03-22T15:45:26;11.00;99.90
16655;DHT22;8441;51.344;7.022;2024-03-22T15:47:56;11.00;99.90